Time;durP1;ratioP1;P1;durP2;ratioP2;P2;SDS_P1;SDS_P2;PMS_P1;PMS_P2;Temp;Humidity;BMP_temperature;BMP_pressure;BME280_temperature;BME280_humidity;BME280_pressure;Samples;Min_cycle;Max_cycle;Signal;HPM_P1;HPM_P2
2021/12/11 00:01:16;;;;;;;0.93;0.80;;;16.80;61.50;;;;;;5034427;28;20064;-22
2021/12/11 00:03:43;;;;;;;1.05;0.77;;;16.80;61.30;;;;;;5033176;28;20041;-29
2021/12/11 00:06:17;;;;;;;1.25;0.63;;;16.80;61.30;;;;;;5029781;28;20574;-22
2021/12/11 00:08:43;;;;;;;;;;;16.80;61.30;;;;;;5026206;28;20644;-25
2021/12/11 00:11:15;;;;;;;0.73;0.70;;;16.80;61.40;;;;;;5021311;28;19992;-21
2021/12/11 00:13:40;;;;;;;0.90;0.70;;;16.80;61.30;;;;;;5029841;28;20049;-21
2021/12/11 00:16:08;;;;;;;0.60;0.55;;;16.80;61.30;;;;;;5034800;28;20064;-21
2021/12/11 00:18:34;;;;;;;0.60;0.60;;;16.80;61.30;;;;;;5033993;28;20045;-24
2021/12/11 00:21:08;;;;;;;1.13;0.68;;;16.80;61.20;;;;;;5034245;28;20069;-22
2021/12/11 00:24:07;;;;;;;0.60;0.60;;;16.80;61.30;;;;;;5034080;28;20503;-24
2021/12/11 00:26:36;;;;;;;0.60;0.60;;;16.70;61.20;;;;;;5032473;28;20046;-26
2021/12/11 00:29:01;;;;;;;0.75;0.70;;;16.70;61.10;;;;;;5031327;28;20041;-21
2021/12/11 00:31:27;;;;;;;0.80;0.80;;;16.70;61.20;;;;;;5034424;28;20052;-23
2021/12/11 00:33:53;;;;;;;1.05;0.80;;;16.80;61.20;;;;;;5033011;28;20054;-24
2021/12/11 00:36:20;;;;;;;0.95;0.70;;;16.70;61.20;;;;;;5034081;28;20052;-24
2021/12/11 00:38:48;;;;;;;0.70;0.70;;;16.70;61.30;;;;;;5034125;28;20514;-21
2021/12/11 00:41:14;;;;;;;3.17;0.95;;;16.70;61.20;;;;;;5014951;28;20174;-21
2021/12/11 00:43:41;;;;;;;1.15;0.90;;;16.70;61.10;;;;;;5031747;28;20070;-25
2021/12/11 00:46:08;;;;;;;0.52;0.52;;;16.70;61.00;;;;;;5036316;28;20033;-26
2021/12/11 00:48:33;;;;;;;0.88;0.70;;;16.70;61.00;;;;;;5037008;28;20060;-22
2021/12/11 00:51:12;;;;;;;0.82;0.80;;;16.70;61.00;;;;;;5036837;28;20072;-27
2021/12/11 00:53:45;;;;;;;1.50;0.90;;;16.70;61.10;;;;;;5028150;28;20056;-23
2021/12/11 00:56:13;;;;;;;1.15;0.90;;;16.70;61.10;;;;;;5036544;28;20045;-23
2021/12/11 00:58:40;;;;;;;1.00;0.70;;;16.70;61.10;;;;;;5037110;28;20407;-26
2021/12/11 01:01:09;;;;;;;1.00;0.75;;;16.70;60.90;;;;;;5037774;28;20046;-23
2021/12/11 01:03:53;;;;;;;1.20;0.80;;;16.80;61.00;;;;;;5045019;28;20052;-22
2021/12/11 01:06:22;;;;;;;1.10;0.90;;;16.70;61.00;;;;;;5037649;28;20049;-25
2021/12/11 01:08:54;;;;;;;0.77;0.70;;;16.70;61.00;;;;;;5037366;28;20056;-22
2021/12/11 01:11:32;;;;;;;1.05;0.77;;;16.70;60.90;;;;;;5037830;28;20052;-29
2021/12/11 01:14:18;;;;;;;1.83;1.00;;;16.70;61.00;;;;;;5037364;28;20387;-23
2021/12/11 01:16:48;;;;;;;0.77;0.70;;;16.70;61.00;;;;;;5045056;28;20053;-25
2021/12/11 01:19:18;;;;;;;1.05;0.93;;;16.70;61.10;;;;;;5024721;28;20042;-23
2021/12/11 01:21:54;;;;;;;1.00;0.90;;;16.70;61.00;;;;;;5017238;28;20041;-24
2021/12/11 01:27:04;;;;;;;0.88;0.80;;;16.70;61.00;;;;;;5031940;28;20072;-21
2021/12/11 01:29:30;;;;;;;1.10;0.80;;;16.70;60.90;;;;;;5037457;28;20457;-28
2021/12/11 01:31:57;;;;;;;1.15;0.80;;;16.70;61.00;;;;;;5037164;28;20057;-24
2021/12/11 01:34:23;;;;;;;0.90;0.80;;;16.70;61.00;;;;;;5037043;28;20041;-23
2021/12/11 01:36:49;;;;;;;1.45;0.80;;;16.60;60.90;;;;;;5036612;28;20099;-24
2021/12/11 01:39:18;;;;;;;0.70;0.70;;;16.60;60.90;;;;;;5037666;28;20046;-24
2021/12/11 01:41:44;;;;;;;1.15;0.80;;;16.60;60.90;;;;;;5036714;28;20052;-24
2021/12/11 01:44:15;;;;;;;1.20;0.77;;;16.60;60.90;;;;;;5037323;28;20048;-25
2021/12/11 01:46:41;;;;;;;1.10;0.80;;;16.60;60.90;;;;;;5036247;28;20542;-24
2021/12/11 01:49:14;;;;;;;0.80;0.60;;;16.60;61.00;;;;;;5036866;28;20049;-22
2021/12/11 01:51:53;;;;;;;0.70;0.70;;;16.60;61.00;;;;;;5036308;28;20503;-27
2021/12/11 01:54:34;;;;;;;0.80;0.80;;;16.60;60.80;;;;;;5030859;28;20044;-28
2021/12/11 01:57:03;;;;;;;0.95;0.75;;;16.60;60.90;;;;;;5035980;28;20049;-26
2021/12/11 01:59:31;;;;;;;0.70;0.60;;;16.60;60.80;;;;;;5037368;28;20490;-27
2021/12/11 02:02:05;;;;;;;0.77;0.60;;;16.60;60.90;;;;;;5036397;28;20048;-20
2021/12/11 02:04:33;;;;;;;1.17;1.08;;;16.60;60.80;;;;;;5036799;28;20129;-29
2021/12/11 02:07:31;;;;;;;0.80;0.80;;;16.60;60.80;;;;;;5035207;28;20049;-24
2021/12/11 02:09:59;;;;;;;1.10;0.57;;;16.60;60.70;;;;;;5029836;28;20037;-22
2021/12/11 02:12:34;;;;;;;0.93;0.63;;;16.60;60.80;;;;;;5036773;28;20050;-22
2021/12/11 02:15:02;;;;;;;1.10;0.82;;;16.60;60.80;;;;;;5036178;28;20099;-25
2021/12/11 02:17:45;;;;;;;0.98;0.50;;;16.60;60.70;;;;;;5031005;28;20049;-23
2021/12/11 02:20:14;;;;;;;0.60;0.60;;;16.60;60.70;;;;;;5016546;28;20038;-24
2021/12/11 02:22:46;;;;;;;0.82;0.75;;;16.60;60.80;;;;;;5016343;28;20038;-30
2021/12/11 02:25:20;;;;;;;0.85;0.57;;;16.60;60.90;;;;;;5023779;28;20115;-26
2021/12/11 02:27:56;;;;;;;0.60;0.47;;;16.60;60.80;;;;;;5036105;28;20045;-23
2021/12/11 02:30:26;;;;;;;1.15;0.60;;;16.60;60.80;;;;;;5045616;28;20043;-21
2021/12/11 02:33:23;;;;;;;0.77;0.63;;;16.60;61.00;;;;;;5055755;28;20052;-24
2021/12/11 02:36:14;;;;;;;1.52;0.80;;;16.60;60.90;;;;;;5043363;28;20041;-23
2021/12/11 02:38:48;;;;;;;0.63;0.60;;;16.50;60.90;;;;;;5034793;28;20053;-21
2021/12/11 02:41:19;;;;;;;0.88;0.60;;;16.60;61.00;;;;;;5036602;28;20041;-22
2021/12/11 02:43:56;;;;;;;0.70;0.57;;;16.60;60.90;;;;;;5035664;28;20135;-21
2021/12/11 02:46:27;;;;;;;0.80;0.70;;;16.60;60.90;;;;;;5036091;28;20045;-24
2021/12/11 02:48:56;;;;;;;0.52;0.50;;;16.60;60.90;;;;;;5035380;28;20084;-23
2021/12/11 02:51:34;;;;;;;0.65;0.50;;;16.60;60.90;;;;;;5036008;28;20414;-29
2021/12/11 02:54:39;;;;;;;0.70;0.57;;;16.60;60.90;;;;;;5035031;28;20117;-21
2021/12/11 02:57:21;;;;;;;0.93;0.50;;;16.60;60.90;;;;;;5017897;28;20054;-27
2021/12/11 02:59:48;;;;;;;0.88;0.50;;;16.60;60.90;;;;;;5031647;28;20118;-24
2021/12/11 03:02:25;;;;;;;0.47;0.45;;;16.60;61.00;;;;;;5016844;28;20077;-23
2021/12/11 03:05:08;;;;;;;0.98;0.55;;;16.60;60.90;;;;;;5015457;28;20042;-28
2021/12/11 03:07:37;;;;;;;0.88;0.55;;;16.60;61.00;;;;;;5026988;28;20045;-26
2021/12/11 03:10:06;;;;;;;0.80;0.70;;;16.60;61.10;;;;;;5035390;28;20042;-23
2021/12/11 03:12:31;;;;;;;0.60;0.50;;;16.50;61.00;;;;;;5035532;28;20044;-22
2021/12/11 03:14:57;;;;;;;0.52;0.50;;;16.50;61.10;;;;;;5033830;28;20203;-22
2021/12/11 03:17:23;;;;;;;0.77;0.70;;;16.50;61.10;;;;;;5030683;28;20483;-23
2021/12/11 03:19:51;;;;;;;1.13;0.43;;;16.60;61.10;;;;;;5015290;28;20580;-23
2021/12/11 03:22:20;;;;;;;0.40;0.40;;;16.60;61.10;;;;;;5015944;28;20664;-22
2021/12/11 03:24:46;;;;;;;0.70;0.63;;;16.60;61.00;;;;;;5015303;28;20034;-29
2021/12/11 03:27:11;;;;;;;0.45;0.45;;;16.60;61.10;;;;;;5024938;28;20041;-28
2021/12/11 03:29:37;;;;;;;1.00;0.60;;;16.50;61.00;;;;;;5038516;28;20037;-20
2021/12/11 03:32:05;;;;;;;0.52;0.52;;;16.60;61.10;;;;;;5058337;28;20520;-24
2021/12/11 03:34:31;;;;;;;0.60;0.60;;;16.60;61.10;;;;;;5074969;28;20044;-30
2021/12/11 03:36:57;;;;;;;0.60;0.60;;;16.50;61.00;;;;;;5074601;28;20044;-24
2021/12/11 03:39:27;;;;;;;0.60;0.60;;;16.60;61.00;;;;;;5075628;28;20534;-21
2021/12/11 03:41:53;;;;;;;0.43;0.40;;;16.50;60.90;;;;;;5062990;28;20048;-23
2021/12/11 03:44:19;;;;;;;0.60;0.50;;;16.50;61.00;;;;;;5035111;28;20048;-22
2021/12/11 03:46:51;;;;;;;0.65;0.60;;;16.50;61.00;;;;;;5034604;28;20049;-24
2021/12/11 03:49:17;;;;;;;0.40;0.40;;;16.60;60.90;;;;;;5034793;28;20053;-22
2021/12/11 03:51:44;;;;;;;0.50;0.50;;;16.60;60.90;;;;;;5034214;28;20060;-21
2021/12/11 03:54:13;;;;;;;0.63;0.63;;;16.50;60.90;;;;;;5034876;28;20187;-24
2021/12/11 03:56:39;;;;;;;0.70;0.60;;;16.50;60.90;;;;;;5035177;28;20049;-21
2021/12/11 03:59:09;;;;;;;0.52;0.52;;;16.60;60.90;;;;;;5034471;28;20034;-27
2021/12/11 04:01:43;;;;;;;0.60;0.38;;;16.50;61.70;;;;;;5035002;28;20063;-30
2021/12/11 04:04:25;;;;;;;0.60;0.55;;;16.50;61.10;;;;;;5054115;28;20037;-30
2021/12/11 04:06:51;;;;;;;0.88;0.57;;;16.50;61.00;;;;;;5054310;28;20048;-25
2021/12/11 04:09:16;;;;;;;0.70;0.40;;;16.50;61.00;;;;;;5054491;28;20049;-24
2021/12/11 04:11:46;;;;;;;0.55;0.40;;;16.60;60.90;;;;;;5054076;28;20045;-21
2021/12/11 04:14:20;;;;;;;0.40;0.40;;;16.50;60.90;;;;;;5054864;28;20579;-28
2021/12/11 04:16:46;;;;;;;;;;;16.60;60.90;;;;;;5054799;28;20048;-30
2021/12/11 04:19:12;;;;;;;0.35;0.35;;;16.50;60.90;;;;;;5056830;28;20381;-25
2021/12/11 04:21:37;;;;;;;0.40;0.40;;;16.50;60.90;;;;;;5058576;28;20045;-23
2021/12/11 04:24:04;;;;;;;0.50;0.50;;;16.50;60.90;;;;;;5058034;28;20076;-24
2021/12/11 04:26:29;;;;;;;0.50;0.40;;;16.50;60.90;;;;;;5058945;28;20044;-23
2021/12/11 04:28:55;;;;;;;0.50;0.50;;;16.50;60.90;;;;;;5058063;28;20124;-26
2021/12/11 04:31:23;;;;;;;0.40;0.40;;;16.50;60.90;;;;;;5062063;28;20114;-24
2021/12/11 04:33:50;;;;;;;0.40;0.40;;;16.50;60.90;;;;;;5057949;28;20725;-20
2021/12/11 04:36:19;;;;;;;0.73;0.35;;;16.50;60.90;;;;;;5058528;28;20112;-23
2021/12/11 04:38:45;;;;;;;1.00;0.65;;;16.50;60.90;;;;;;5037539;28;20057;-23
2021/12/11 04:41:15;;;;;;;0.50;0.40;;;16.50;60.90;;;;;;5038210;28;20046;-22
2021/12/11 04:43:42;;;;;;;0.50;0.50;;;16.50;60.90;;;;;;5038513;28;20080;-26
2021/12/11 04:46:08;;;;;;;0.85;0.40;;;16.50;61.00;;;;;;5037915;28;20104;-21
2021/12/11 04:48:56;;;;;;;0.50;0.40;;;16.50;60.90;;;;;;5037561;28;20053;-20
2021/12/11 04:51:31;;;;;;;0.40;0.40;;;16.50;60.80;;;;;;5057482;28;20037;-20
2021/12/11 04:59:45;;;;;;;1.80;0.60;;;16.50;61.10;;;;;;5057551;28;20118;-23
2021/12/11 05:10:17;;;;;;;0.45;0.32;;;16.60;60.80;;;;;;5037435;28;20119;-24
2021/12/11 05:12:44;;;;;;;0.60;0.40;;;16.50;60.90;;;;;;5038002;28;20037;-26
2021/12/11 05:15:16;;;;;;;0.50;0.45;;;16.50;60.90;;;;;;5037213;28;20041;-25
2021/12/11 05:17:42;;;;;;;0.40;0.32;;;16.50;61.00;;;;;;5033179;28;21460;-23
2021/12/11 05:20:08;;;;;;;0.50;0.50;;;16.50;61.00;;;;;;5037144;28;20112;-22
2021/12/11 05:22:34;;;;;;;0.55;0.50;;;16.50;60.90;;;;;;5037867;28;20037;-26
2021/12/11 05:25:00;;;;;;;0.68;0.50;;;16.50;61.00;;;;;;5036910;28;20037;-22
2021/12/11 05:27:25;;;;;;;0.40;0.40;;;16.50;61.00;;;;;;5037389;28;20041;-23
2021/12/11 05:29:51;;;;;;;0.43;0.43;;;16.40;60.90;;;;;;5040732;28;20045;-24
2021/12/11 05:32:19;;;;;;;0.50;0.50;;;16.50;60.90;;;;;;5057316;28;20041;-23
2021/12/11 05:34:45;;;;;;;0.52;0.40;;;16.50;60.80;;;;;;5056988;28;20052;-29
2021/12/11 05:37:11;;;;;;;0.40;0.40;;;16.50;60.90;;;;;;5057620;28;20037;-31
2021/12/11 05:39:36;;;;;;;0.63;0.40;;;16.50;61.00;;;;;;5057640;28;20045;-25
2021/12/11 05:42:02;;;;;;;0.45;0.40;;;16.50;61.00;;;;;;5056792;28;20047;-23
2021/12/11 05:44:28;;;;;;;0.57;0.52;;;16.50;61.00;;;;;;5042334;28;20159;-26
2021/12/11 05:46:53;;;;;;;0.90;0.30;;;16.50;61.00;;;;;;5036718;28;20045;-21
2021/12/11 05:49:19;;;;;;;0.50;0.40;;;16.40;61.00;;;;;;5036928;28;20510;-29
2021/12/11 05:51:46;;;;;;;0.40;0.35;;;16.40;61.00;;;;;;5035015;28;20055;-24
2021/12/11 05:54:19;;;;;;;0.43;0.40;;;16.40;61.00;;;;;;5029136;28;20065;-22
2021/12/11 05:56:44;;;;;;;0.40;0.20;;;16.50;61.00;;;;;;5033894;28;20045;-26
2021/12/11 05:59:12;;;;;;;0.45;0.30;;;16.40;61.00;;;;;;5036524;28;20460;-25
2021/12/11 06:02:06;;;;;;;0.30;0.30;;;16.40;61.10;;;;;;5037177;28;20048;-24
2021/12/11 06:04:33;;;;;;;0.73;0.55;;;16.40;61.00;;;;;;5032354;28;20055;-30
2021/12/11 06:06:59;;;;;;;0.40;0.40;;;16.40;61.00;;;;;;5036345;28;20580;-23
2021/12/11 06:09:25;;;;;;;0.52;0.50;;;16.40;61.10;;;;;;5037109;28;20049;-24
2021/12/11 06:11:51;;;;;;;0.50;0.30;;;16.40;61.00;;;;;;5035819;28;20045;-25
2021/12/11 06:14:18;;;;;;;0.30;0.30;;;16.40;61.10;;;;;;5036441;28;20052;-20
2021/12/11 06:16:45;;;;;;;0.60;0.50;;;16.40;61.10;;;;;;5035850;28;20421;-30
2021/12/11 06:19:10;;;;;;;1.23;0.52;;;16.40;61.00;;;;;;5034974;28;20037;-23
2021/12/11 06:21:36;;;;;;;0.40;0.40;;;16.40;60.90;;;;;;5036766;28;20044;-23
2021/12/11 06:24:02;;;;;;;0.45;0.45;;;16.40;60.90;;;;;;5035914;28;20045;-29
2021/12/11 06:26:28;;;;;;;0.30;0.25;;;16.40;61.00;;;;;;5036819;28;20049;-23
2021/12/11 06:28:54;;;;;;;0.68;0.40;;;16.40;61.10;;;;;;5036011;28;20099;-27
2021/12/11 06:31:19;;;;;;;0.70;0.47;;;16.40;60.80;;;;;;5053600;28;20040;-25
2021/12/11 06:33:50;;;;;;;0.40;0.40;;;16.40;61.00;;;;;;5055474;28;20053;-26
2021/12/11 06:36:17;;;;;;;0.40;0.40;;;16.40;61.00;;;;;;5035910;28;20037;-23
2021/12/11 06:38:44;;;;;;;2.05;0.30;;;16.40;60.80;;;;;;5036206;28;20069;-24
2021/12/11 06:41:11;;;;;;;0.50;0.40;;;16.40;61.70;;;;;;5035416;28;20088;-29
2021/12/11 06:43:37;;;;;;;0.45;0.30;;;16.40;61.00;;;;;;5035771;28;20077;-24
2021/12/11 06:46:03;;;;;;;0.40;0.35;;;16.40;61.00;;;;;;5035609;28;20038;-21
2021/12/11 06:48:29;;;;;;;0.52;0.40;;;16.40;61.00;;;;;;5036068;28;20117;-28
2021/12/11 06:50:56;;;;;;;0.60;0.50;;;16.40;61.00;;;;;;5035333;28;20060;-23
2021/12/11 06:53:33;;;;;;;0.40;0.28;;;16.40;60.90;;;;;;5035664;28;20053;-20
2021/12/11 06:55:59;;;;;;;0.47;0.47;;;16.30;61.00;;;;;;5034800;28;20183;-27
2021/12/11 06:58:26;;;;;;;0.88;0.45;;;16.30;61.00;;;;;;5035750;28;20084;-23
2021/12/11 07:00:53;;;;;;;0.47;0.30;;;16.30;61.10;;;;;;5035362;28;20117;-24
2021/12/11 07:03:18;;;;;;;0.35;0.22;;;16.30;61.00;;;;;;5035788;28;20050;-26
2021/12/11 07:05:44;;;;;;;0.50;0.40;;;16.40;61.10;;;;;;5035902;28;20387;-24
2021/12/11 07:08:12;;;;;;;0.47;0.40;;;16.40;61.00;;;;;;5035364;28;21015;-23
2021/12/11 07:10:39;;;;;;;0.47;0.47;;;16.40;61.10;;;;;;5035832;28;20453;-25
2021/12/11 07:13:05;;;;;;;0.35;0.35;;;16.40;61.10;;;;;;5034782;28;20041;-24
2021/12/11 07:15:30;;;;;;;0.57;0.30;;;16.40;61.00;;;;;;5035150;28;20543;-28
2021/12/11 07:17:56;;;;;;;0.30;0.30;;;16.40;61.00;;;;;;5023444;28;20402;-24
2021/12/11 07:20:21;;;;;;;0.47;0.30;;;16.30;61.00;;;;;;5014105;28;20038;-28
2021/12/11 07:22:47;;;;;;;0.60;0.50;;;16.30;60.90;;;;;;5014156;28;20050;-21
2021/12/11 07:25:20;;;;;;;0.40;0.40;;;16.30;60.90;;;;;;5013334;28;20049;-24
2021/12/11 07:27:46;;;;;;;0.20;0.20;;;16.40;61.00;;;;;;5033202;28;20056;-25
2021/12/11 07:30:12;;;;;;;0.32;0.30;;;16.40;61.10;;;;;;5040911;28;20040;-23
2021/12/11 07:32:38;;;;;;;0.57;0.40;;;16.40;61.10;;;;;;5033497;28;20100;-27
2021/12/11 07:35:04;;;;;;;0.40;0.40;;;16.30;61.00;;;;;;5024518;28;20128;-22
2021/12/11 07:37:30;;;;;;;0.50;0.30;;;16.30;61.10;;;;;;5042252;28;20406;-25
2021/12/11 07:39:55;;;;;;;0.40;0.40;;;16.30;61.00;;;;;;5043548;28;20045;-26
2021/12/11 07:42:21;;;;;;;0.57;0.47;;;16.30;60.90;;;;;;5042709;28;20037;-22
2021/12/11 07:44:47;;;;;;;0.38;0.38;;;16.40;61.00;;;;;;5050491;28;20052;-20
2021/12/11 07:47:12;;;;;;;0.28;0.28;;;16.30;61.00;;;;;;5035041;28;20052;-20
2021/12/11 07:49:38;;;;;;;0.50;0.40;;;16.30;60.90;;;;;;5034863;28;20056;-27
2021/12/11 07:52:04;;;;;;;0.50;0.50;;;16.30;61.00;;;;;;5034007;28;20044;-23
2021/12/11 07:54:30;;;;;;;0.40;0.40;;;16.30;60.90;;;;;;5034928;28;20083;-22
2021/12/11 07:56:55;;;;;;;0.30;0.30;;;16.30;60.90;;;;;;5034465;28;20044;-21
2021/12/11 07:59:21;;;;;;;0.40;0.40;;;16.40;61.00;;;;;;5035728;28;20049;-22
2021/12/11 08:01:48;;;;;;;0.38;0.38;;;16.30;60.90;;;;;;5035823;28;20065;-26
2021/12/11 08:04:14;;;;;;;0.50;0.50;;;16.30;61.00;;;;;;5030678;28;20077;-22
2021/12/11 08:06:39;;;;;;;0.43;0.40;;;16.30;61.00;;;;;;5030549;28;20045;-23
2021/12/11 08:09:07;;;;;;;0.55;0.50;;;16.30;61.00;;;;;;5037300;28;20041;-21
2021/12/11 08:11:33;;;;;;;0.63;0.52;;;16.30;61.00;;;;;;5043905;28;20050;-23
2021/12/11 08:13:58;;;;;;;0.30;0.30;;;16.30;61.00;;;;;;5035686;28;20037;-26
2021/12/11 08:16:31;;;;;;;0.40;0.30;;;16.30;61.00;;;;;;5030440;28;20071;-25
2021/12/11 08:18:57;;;;;;;0.40;0.40;;;16.30;61.00;;;;;;5037231;28;20044;-21
2021/12/11 08:21:23;;;;;;;0.40;0.40;;;16.30;61.00;;;;;;5026585;28;20049;-33
2021/12/11 08:23:54;;;;;;;0.38;0.30;;;16.30;60.90;;;;;;5033451;28;20183;-29
2021/12/11 08:26:20;;;;;;;0.30;0.30;;;16.30;61.00;;;;;;5036392;28;20049;-27
2021/12/11 08:28:46;;;;;;;0.40;0.30;;;16.30;61.00;;;;;;5026018;28;20037;-28
2021/12/11 08:31:14;;;;;;;0.30;0.30;;;16.30;61.10;;;;;;5024807;28;20045;-27
2021/12/11 08:33:40;;;;;;;0.60;0.50;;;16.30;61.10;;;;;;5041389;28;20041;-23
2021/12/11 08:36:06;;;;;;;1.45;0.22;;;16.30;60.90;;;;;;5033234;28;20523;-21
2021/12/11 08:38:31;;;;;;;0.30;0.30;;;16.30;61.10;;;;;;5037825;28;20033;-32
2021/12/11 08:40:57;;;;;;;0.73;0.30;;;16.30;61.10;;;;;;5042318;28;20513;-23
2021/12/11 08:43:23;;;;;;;0.45;0.40;;;16.30;61.00;;;;;;5028437;28;20137;-29
2021/12/11 08:48:47;;;;;;;0.65;0.30;;;16.30;61.70;;;;;;5024865;28;20049;-29
2021/12/11 08:51:19;;;;;;;0.68;0.40;;;16.30;62.20;;;;;;5031877;28;20087;-27
2021/12/11 08:53:44;;;;;;;0.55;0.40;;;16.30;62.40;;;;;;5033858;28;20041;-25
2021/12/11 08:56:11;;;;;;;0.28;0.28;;;16.30;62.40;;;;;;5032407;28;20038;-29
2021/12/11 08:58:37;;;;;;;0.52;0.52;;;16.30;62.30;;;;;;5033323;28;20076;-26
2021/12/11 09:01:31;;;;;;;0.30;0.30;;;16.30;62.20;;;;;;5040578;28;20052;-25
2021/12/11 09:04:03;;;;;;;0.55;0.40;;;16.30;62.10;;;;;;5032307;28;20091;-25
2021/12/11 09:06:36;;;;;;;0.30;0.30;;;16.30;62.10;;;;;;5055378;28;20079;-25
2021/12/11 09:09:09;;;;;;;0.40;0.40;;;16.30;62.10;;;;;;5053169;28;20048;-29
2021/12/11 09:11:43;;;;;;;0.60;0.30;;;16.30;62.10;;;;;;5051512;28;20037;-29
2021/12/11 09:14:11;;;;;;;0.43;0.40;;;16.30;62.00;;;;;;5049943;28;20128;-30
2021/12/11 09:17:00;;;;;;;0.43;0.30;;;16.30;62.10;;;;;;5053943;28;20637;-28
2021/12/11 09:19:39;;;;;;;0.30;0.30;;;16.30;61.80;;;;;;5036234;28;20056;-29
2021/12/11 09:22:18;;;;;;;0.40;0.38;;;16.30;61.80;;;;;;5034531;28;20049;-27
2021/12/11 09:24:54;;;;;;;0.55;0.40;;;16.30;62.00;;;;;;5033311;28;20044;-24
2021/12/11 09:27:28;;;;;;;0.32;0.32;;;16.30;61.90;;;;;;5033579;28;20049;-23
2021/12/11 09:29:58;;;;;;;0.93;0.50;;;16.30;62.80;;;;;;5031736;28;20394;-25
2021/12/11 09:32:27;;;;;;;0.55;0.50;;;16.30;62.10;;;;;;5021357;28;20052;-26
2021/12/11 09:35:14;;;;;;;0.70;0.30;;;16.40;62.20;;;;;;5036085;28;20135;-21
2021/12/11 09:37:49;;;;;;;1.00;0.55;;;16.40;62.00;;;;;;5033775;28;20041;-24
2021/12/11 09:40:39;;;;;;;1.30;0.50;;;16.40;62.30;;;;;;5039598;28;20129;-23
2021/12/11 09:43:04;;;;;;;0.70;0.60;;;16.40;62.20;;;;;;5037618;28;20041;-21
2021/12/11 09:45:36;;;;;;;1.13;0.50;;;16.40;62.20;;;;;;5040760;28;20126;-22
2021/12/11 09:48:15;;;;;;;0.82;0.50;;;16.40;62.20;;;;;;5041000;28;20049;-23
2021/12/11 09:50:48;;;;;;;1.02;0.68;;;16.40;62.00;;;;;;5039006;28;20402;-22
2021/12/11 09:53:15;;;;;;;0.75;0.55;;;16.40;61.80;;;;;;5036554;28;20433;-24
2021/12/11 09:55:40;;;;;;;1.65;0.77;;;16.40;62.20;;;;;;5022653;28;20519;-23
2021/12/11 09:58:12;;;;;;;0.70;0.70;;;16.40;62.60;;;;;;5053579;28;20124;-23
2021/12/11 10:00:39;;;;;;;0.82;0.70;;;16.40;63.40;;;;;;5049855;28;20076;-21
2021/12/11 10:03:08;;;;;;;0.60;0.60;;;16.40;63.50;;;;;;5049512;28;20048;-25
2021/12/11 10:05:45;;;;;;;0.60;0.60;;;16.40;63.60;;;;;;5052631;28;20033;-23
2021/12/11 10:08:37;;;;;;;0.93;0.82;;;16.50;63.70;;;;;;5051423;28;20476;-21
2021/12/11 10:11:16;;;;;;;1.45;0.80;;;16.50;63.50;;;;;;5051805;28;20155;-24
2021/12/11 10:13:45;;;;;;;0.82;0.82;;;16.60;63.30;;;;;;5048083;28;20088;-23
2021/12/11 10:16:11;;;;;;;0.93;0.70;;;16.50;63.20;;;;;;5048821;28;20108;-25
2021/12/11 10:18:37;;;;;;;0.70;0.70;;;16.50;63.20;;;;;;5055417;28;20049;-27
2021/12/11 10:21:07;;;;;;;0.70;0.70;;;16.50;63.10;;;;;;5055008;28;20044;-21
2021/12/11 10:23:34;;;;;;;1.20;1.10;;;16.50;63.10;;;;;;5055663;28;20079;-27
2021/12/11 10:26:01;;;;;;;1.10;1.00;;;16.50;63.00;;;;;;5055714;28;20137;-27
2021/12/11 10:28:28;;;;;;;0.95;0.85;;;16.50;62.90;;;;;;5017288;28;20633;-26
2021/12/11 10:31:01;;;;;;;1.90;1.00;;;16.50;62.80;;;;;;5043513;28;20052;-23
2021/12/11 10:33:28;;;;;;;1.15;1.05;;;16.50;62.70;;;;;;5052938;28;20048;-26
2021/12/11 10:35:57;;;;;;;1.20;1.10;;;16.60;62.60;;;;;;5049752;28;20037;-29
2021/12/11 10:38:23;;;;;;;0.98;0.90;;;16.50;62.50;;;;;;5033221;28;20053;-20
2021/12/11 10:40:54;;;;;;;0.80;0.80;;;16.50;62.60;;;;;;5042009;28;20417;-28
2021/12/11 10:43:22;;;;;;;1.10;1.00;;;16.50;62.60;;;;;;5041783;28;20050;-22
2021/12/11 10:45:48;;;;;;;1.45;0.80;;;16.50;62.50;;;;;;5028970;28;20046;-24
2021/12/11 10:48:15;;;;;;;2.10;0.70;;;16.50;62.40;;;;;;5030047;28;20145;-27
2021/12/11 10:50:44;;;;;;;1.30;0.77;;;16.50;62.40;;;;;;5034114;28;20540;-28
2021/12/11 10:53:12;;;;;;;0.98;0.80;;;16.50;62.40;;;;;;5031781;28;20041;-21
2021/12/11 10:55:37;;;;;;;0.95;0.93;;;16.50;62.50;;;;;;5039088;28;20045;-26
2021/12/11 10:58:15;;;;;;;0.90;0.80;;;16.50;62.60;;;;;;5029926;28;20080;-22
2021/12/11 11:00:47;;;;;;;0.60;0.60;;;16.50;62.70;;;;;;5039307;28;20596;-24
2021/12/11 11:03:15;;;;;;;0.80;0.80;;;16.60;62.80;;;;;;5031313;28;20041;-20
2021/12/11 11:05:40;;;;;;;1.02;0.82;;;16.60;62.80;;;;;;5026101;28;20525;-30
2021/12/11 11:08:06;;;;;;;0.77;0.77;;;16.50;62.80;;;;;;5030307;28;20037;-27
2021/12/11 11:10:37;;;;;;;0.88;0.88;;;16.50;62.80;;;;;;5029510;28;20052;-20
2021/12/11 11:13:06;;;;;;;0.82;0.80;;;16.50;62.70;;;;;;5030485;28;20395;-25
2021/12/11 11:15:32;;;;;;;1.45;1.00;;;16.60;62.70;;;;;;5031090;28;20067;-23
2021/12/11 11:17:58;;;;;;;0.98;0.98;;;16.60;62.60;;;;;;5042311;28;20040;-23
2021/12/11 11:20:35;;;;;;;1.33;0.70;;;16.60;62.60;;;;;;5031867;28;20057;-21
2021/12/11 11:23:01;;;;;;;0.93;0.82;;;16.50;62.60;;;;;;5041888;28;20038;-26
2021/12/11 11:25:30;;;;;;;1.17;0.95;;;16.60;62.60;;;;;;5029103;28;20125;-25
2021/12/11 11:27:59;;;;;;;0.80;0.75;;;16.50;62.50;;;;;;5028906;28;20116;-27
2021/12/11 11:30:36;;;;;;;1.20;1.05;;;16.60;62.60;;;;;;5040950;28;20057;-29
2021/12/11 11:33:02;;;;;;;1.45;0.88;;;16.60;62.70;;;;;;5033794;28;20046;-24
2021/12/11 11:35:29;;;;;;;2.10;1.33;;;16.60;62.70;;;;;;5038431;28;20103;-25
2021/12/11 11:37:57;;;;;;;1.00;0.90;;;16.60;62.90;;;;;;5030789;28;20049;-24
2021/12/11 11:40:33;;;;;;;1.55;0.85;;;16.60;62.90;;;;;;5036495;28;20076;-22
2021/12/11 11:42:59;;;;;;;2.58;1.10;;;16.60;63.20;;;;;;5033998;28;20045;-26
2021/12/11 11:45:25;;;;;;;1.50;1.40;;;16.60;63.50;;;;;;5028430;28;20042;-21
2021/12/11 11:47:51;;;;;;;1.52;1.08;;;16.60;63.90;;;;;;5040179;28;20034;-24
2021/12/11 11:50:18;;;;;;;1.70;1.08;;;16.60;64.40;;;;;;5025023;28;20064;-20
2021/12/11 11:52:44;;;;;;;2.88;1.23;;;16.60;65.50;;;;;;5023048;28;20048;-22
2021/12/11 11:55:17;;;;;;;4.05;1.70;;;16.60;66.20;;;;;;5037806;28;20387;-24
2021/12/11 11:57:47;;;;;;;2.72;1.38;;;16.60;66.30;;;;;;5025207;28;20054;-24
2021/12/11 12:00:18;;;;;;;1.40;1.25;;;16.60;66.20;;;;;;5038351;28;20033;-20
2021/12/11 12:02:44;;;;;;;3.63;1.52;;;16.60;66.20;;;;;;5046741;28;20049;-20
2021/12/11 12:05:10;;;;;;;1.45;1.15;;;16.70;66.10;;;;;;5037956;28;20858;-20
2021/12/11 12:07:35;;;;;;;2.15;1.30;;;16.70;67.10;;;;;;5027408;28;20391;-24
2021/12/11 12:10:06;;;;;;;2.35;1.27;;;16.60;66.40;;;;;;5024096;28;20045;-20
2021/12/11 12:12:32;;;;;;;2.88;1.27;;;16.60;66.30;;;;;;5025318;28;20048;-25
2021/12/11 12:14:58;;;;;;;1.52;1.30;;;16.60;66.20;;;;;;5044619;28;20127;-23
2021/12/11 12:17:26;;;;;;;2.22;1.33;;;16.60;66.20;;;;;;5041412;28;20068;-28
2021/12/11 12:19:51;;;;;;;1.50;1.40;;;16.60;66.20;;;;;;5036944;28;20064;-35
2021/12/11 12:22:17;;;;;;;2.63;1.50;;;16.70;66.00;;;;;;5036820;28;20123;-21
2021/12/11 12:24:44;;;;;;;1.77;1.50;;;16.70;66.00;;;;;;5037192;28;20113;-21
2021/12/11 12:27:12;;;;;;;1.40;1.20;;;16.70;65.90;;;;;;5023257;28;20045;-32
2021/12/11 12:29:38;;;;;;;1.27;1.15;;;16.70;65.90;;;;;;5034256;28;20098;-23
2021/12/11 12:32:09;;;;;;;1.70;1.30;;;16.70;66.00;;;;;;5032735;28;20572;-25
2021/12/11 12:34:35;;;;;;;1.63;1.52;;;16.70;66.40;;;;;;5032565;28;20053;-25
2021/12/11 12:37:01;;;;;;;3.70;1.60;;;16.60;66.40;;;;;;5033792;28;20753;-20
2021/12/11 12:39:37;;;;;;;2.00;1.50;;;16.70;68.60;;;;;;5033506;28;20052;-23
2021/12/11 12:42:16;;;;;;;5.97;1.48;;;16.70;67.40;;;;;;5034607;28;20065;-25
2021/12/11 12:44:42;;;;;;;4.68;1.92;;;16.80;67.70;;;;;;5042917;28;20052;-21
2021/12/11 12:47:18;;;;;;;2.53;1.85;;;16.80;67.70;;;;;;5037327;28;20053;-28
2021/12/11 12:49:45;;;;;;;3.42;2.05;;;16.80;68.00;;;;;;5019070;28;20052;-20
2021/12/11 12:52:30;;;;;;;5.32;2.17;;;16.80;68.80;;;;;;5036846;28;20051;-26
2021/12/11 12:54:57;;;;;;;2.33;2.00;;;16.90;68.30;;;;;;5036723;28;20063;-25
2021/12/11 12:57:29;;;;;;;1.52;1.42;;;16.90;68.10;;;;;;5050884;28;20121;-24
2021/12/11 13:00:00;;;;;;;3.53;1.75;;;16.90;67.70;;;;;;5037810;28;20049;-28
2021/12/11 13:02:27;;;;;;;2.05;1.60;;;16.90;68.40;;;;;;5036436;28;20037;-24
2021/12/11 13:04:59;;;;;;;3.03;1.73;;;16.90;68.00;;;;;;5040361;28;20045;-22
2021/12/11 13:07:25;;;;;;;2.22;1.90;;;17.00;68.30;;;;;;5055402;28;20044;-26
2021/12/11 13:09:53;;;;;;;1.63;1.52;;;16.90;67.50;;;;;;5057228;28;20033;-24
2021/12/11 13:12:28;;;;;;;2.08;1.40;;;16.90;67.50;;;;;;5038173;28;20041;-20
2021/12/11 13:14:55;;;;;;;1.83;1.70;;;16.90;67.60;;;;;;5057095;28;20037;-21
2021/12/11 13:17:27;;;;;;;2.15;1.70;;;16.90;67.80;;;;;;5054718;28;20043;-23
2021/12/11 13:19:57;;;;;;;1.55;1.45;;;16.90;67.70;;;;;;5039776;28;20042;-24